KGVE/GVE METAR and TAF weather

Enter ICAO airport designator
Station Type Date Time Source
KGVE METAR 2020/01/24 21:15 UTC NOAA

KGVE 242115Z AUTO 03006KT 10SM SCT015 OVC019 08/05 A3010 RMK AO1 T00800050


Station Type Date Time Source
KGVE Decoded METAR 2020/01/24 21:15 UTC NOAA

Station name not available
Jan 24, 2020 - 04:15 PM EST / 2020.01.24 2115 UTC
Wind: from the NNE (030 degrees) at 7 MPH (6 KT):0
Visibility: 10 mile(s):0
Sky conditions: overcast
Temperature: 46.4 F (8.0 C)
Dew Point: 41.0 F (5.0 C)
Relative Humidity: 81%
Pressure (altimeter): 30.1 in. Hg (1019 hPa)
ob: KGVE 242115Z AUTO 03006KT 10SM SCT015 OVC019 08/05 A3010 RMK AO1 T00800050
cycle: 21

Station Type Date Time Source
KGVE TAF UTC NOAA

Error!

Example: see airport list